Bible Grove, Illinois
Current Conditions -  °F | °C
As of 5:55 AM on Sunday 21 Dec 2014 (Local Time) from KFOA Reporting Station
Clear Clear  
Wind Chill: 26°   Ceiling: Unl
Heat Index: 31°   Visibility: 7mi
Dew Point: 27°   Wind: 5mph
Humidity: 86%   Direction: 150°SSE
Pressure: 30.28"   Gusts: NA
Location:  38.8267°N, 88.5024°W
Report Text: KFOA 211155Z AUTO 15004KT 7SM CLR M01/M03 A3028 RMK AO2 T10081028 10003 21008
Loading
Personal Weather Stations






























Interactive Weather Map New forecast layout! Learn more

10-Day Weather Forecast

Advertisements
Track Severe Weather on mobile